createdAt,value
2023-02-18T00:01:38.487Z,3.63
2023-02-18T00:04:06.711Z,4.05
2023-02-18T00:06:36.326Z,2.95
2023-02-18T00:09:06.160Z,4.00
2023-02-18T00:11:36.508Z,3.80
2023-02-18T00:14:07.959Z,3.25
2023-02-18T00:16:36.073Z,3.95
2023-02-18T00:19:06.710Z,3.88
2023-02-18T00:21:36.252Z,4.18
2023-02-18T00:24:05.749Z,4.10
2023-02-18T00:26:34.555Z,3.90
2023-02-18T00:29:03.487Z,3.70
2023-02-18T00:31:36.353Z,4.00
2023-02-18T00:34:05.421Z,3.70
2023-02-18T00:36:33.648Z,3.70
2023-02-18T00:39:04.117Z,3.80
2023-02-18T00:41:32.781Z,4.20
2023-02-18T00:44:00.986Z,4.13
2023-02-18T00:46:29.459Z,4.18
2023-02-18T00:48:58.760Z,3.88
2023-02-18T00:51:26.929Z,3.85
2023-02-18T00:53:55.370Z,3.83
2023-02-18T00:56:23.630Z,3.58
2023-02-18T00:58:52.130Z,4.05
2023-02-18T01:01:20.721Z,3.70
2023-02-18T01:03:48.971Z,3.50
2023-02-18T01:06:18.532Z,3.15
2023-02-18T01:08:46.498Z,3.60
2023-02-18T01:11:15.328Z,3.58
2023-02-18T01:13:43.620Z,3.53
2023-02-18T01:16:12.323Z,3.30
2023-02-18T01:18:41.167Z,3.55
2023-02-18T01:21:10.348Z,3.35
2023-02-18T01:23:42.062Z,3.47
2023-02-18T01:26:11.621Z,3.60
2023-02-18T01:28:40.697Z,3.70
2023-02-18T01:31:11.020Z,3.38
2023-02-18T01:33:39.385Z,3.60
2023-02-18T01:36:08.697Z,3.47
2023-02-18T01:38:36.709Z,3.40
2023-02-18T01:41:06.804Z,3.13
2023-02-18T01:43:35.462Z,3.13
2023-02-18T01:46:14.384Z,3.17
2023-02-18T01:48:45.532Z,3.17
2023-02-18T01:51:17.792Z,3.00
2023-02-18T01:53:54.002Z,3.10
2023-02-18T01:56:27.731Z,2.92
2023-02-18T01:58:58.112Z,3.00
2023-02-18T02:01:27.718Z,3.33
2023-02-18T02:03:55.988Z,3.00
2023-02-18T02:06:25.371Z,3.22
2023-02-18T02:08:56.798Z,3.20
2023-02-18T02:12:01.647Z,2.85
2023-02-18T02:14:46.942Z,3.00
2023-02-18T02:17:25.379Z,3.10
2023-02-18T02:20:31.719Z,2.97
2023-02-18T02:23:32.495Z,3.60
2023-02-18T02:26:35.414Z,3.20
2023-02-18T02:29:26.311Z,3.17
2023-02-18T02:32:27.654Z,2.90
2023-02-18T02:35:01.302Z,2.85
2023-02-18T02:37:36.210Z,3.30
2023-02-18T02:40:20.244Z,3.42
2023-02-18T02:43:06.890Z,3.20
2023-02-18T02:45:49.014Z,3.35
2023-02-18T02:48:26.697Z,3.00
2023-02-18T02:51:03.382Z,3.00
2023-02-18T02:53:34.739Z,2.80
2023-02-18T02:56:02.651Z,3.03
2023-02-18T02:58:31.139Z,2.90
2023-02-18T03:01:24.933Z,2.75
2023-02-18T03:04:12.117Z,2.95
2023-02-18T03:07:16.672Z,2.80
2023-02-18T03:10:12.325Z,2.80
2023-02-18T03:12:50.054Z,2.38
2023-02-18T03:15:25.375Z,2.38
2023-02-18T03:17:58.438Z,2.30
2023-02-18T03:20:32.767Z,2.13
2023-02-18T03:23:06.629Z,2.40
2023-02-18T03:25:36.268Z,2.30
2023-02-18T03:28:08.586Z,2.20
2023-02-18T03:30:43.230Z,2.22
2023-02-18T03:33:15.375Z,2.10
2023-02-18T03:35:46.494Z,2.30
2023-02-18T03:38:24.118Z,2.00
2023-02-18T03:40:52.315Z,1.80
2023-02-18T03:43:20.475Z,1.77
2023-02-18T03:45:48.575Z,1.75
2023-02-18T03:48:16.535Z,2.00
2023-02-18T03:50:45.447Z,1.85
2023-02-18T03:53:13.743Z,1.60
2023-02-18T03:55:43.674Z,2.70
2023-02-18T03:58:11.694Z,2.22
2023-02-18T04:00:39.556Z,1.48
2023-02-18T04:03:07.471Z,1.20
2023-02-18T04:05:36.090Z,0.93
2023-02-18T04:08:04.292Z,0.93
2023-02-18T04:10:32.278Z,0.90
2023-02-18T04:13:01.563Z,0.70
2023-02-18T04:15:29.711Z,0.80
2023-02-18T04:17:57.681Z,0.60
2023-02-18T04:20:25.812Z,0.70
2023-02-18T04:22:53.625Z,0.40
2023-02-18T04:25:21.700Z,2.65
2023-02-18T04:27:49.603Z,1.27
2023-02-18T04:30:20.222Z,0.70
2023-02-18T04:32:48.152Z,0.40
2023-02-18T04:35:16.599Z,0.35
2023-02-18T04:37:44.464Z,0.40
2023-02-18T04:40:12.965Z,0.20
2023-02-18T04:42:40.771Z,0.70
2023-02-18T04:45:09.727Z,0.60
2023-02-18T04:47:38.998Z,0.47
2023-02-18T04:50:08.477Z,0.40
2023-02-18T04:52:36.454Z,2.80
2023-02-18T04:55:06.083Z,0.50
2023-02-18T04:57:34.100Z,0.68
2023-02-18T05:00:02.672Z,0.40
2023-02-18T05:02:30.586Z,0.22
2023-02-18T05:05:00.077Z,0.10
2023-02-18T05:07:33.236Z,0.10
2023-02-18T05:10:01.300Z,0.10
2023-02-18T05:12:29.178Z,0.30
2023-02-18T05:14:57.046Z,0.10
2023-02-18T05:17:25.091Z,0.10
2023-02-18T05:19:53.051Z,0.10
2023-02-18T05:22:22.259Z,1.05
2023-02-18T05:24:50.079Z,0.40
2023-02-18T05:27:18.048Z,0.20
2023-02-18T05:29:46.210Z,0.30
2023-02-18T05:32:14.238Z,0.17
2023-02-18T05:34:42.405Z,0.10
2023-02-18T05:37:10.542Z,0.10
2023-02-18T05:39:39.957Z,0.10
2023-02-18T05:42:08.450Z,0.30
2023-02-18T05:44:36.514Z,0.10
2023-02-18T05:47:06.521Z,0.20
2023-02-18T05:49:35.453Z,1.10
2023-02-18T05:52:04.134Z,0.20
2023-02-18T05:54:32.411Z,0.10
2023-02-18T05:57:01.701Z,0.10
2023-02-18T05:59:30.186Z,0.10
2023-02-18T06:01:58.644Z,0.10
2023-02-18T06:04:26.541Z,0.20
2023-02-18T06:06:54.754Z,0.10
2023-02-18T06:09:22.816Z,0.10
2023-02-18T06:11:50.772Z,0.10
2023-02-18T06:14:20.125Z,0.20
2023-02-18T06:16:47.978Z,0.00
2023-02-18T06:19:15.938Z,0.10
2023-02-18T06:21:43.884Z,2.72
2023-02-18T06:24:11.929Z,0.20
2023-02-18T06:26:39.863Z,0.10
2023-02-18T06:29:08.018Z,0.10
2023-02-18T06:31:37.261Z,0.10
2023-02-18T06:34:05.280Z,0.10
2023-02-18T06:36:33.171Z,0.10
2023-02-18T06:39:01.058Z,0.20
2023-02-18T06:41:29.071Z,0.10
2023-02-18T06:43:56.974Z,0.10
2023-02-18T06:46:25.013Z,0.13
2023-02-18T06:48:54.254Z,0.20
2023-02-18T06:51:22.113Z,0.30
2023-02-18T06:53:50.060Z,0.10
2023-02-18T06:56:18.178Z,0.20
2023-02-18T06:58:46.389Z,0.10
2023-02-18T07:01:14.445Z,0.30
2023-02-18T07:03:42.500Z,0.10
2023-02-18T07:06:11.913Z,0.10
2023-02-18T07:08:40.094Z,2.70
2023-02-18T07:11:08.624Z,0.20
2023-02-18T07:13:36.525Z,0.22
2023-02-18T07:16:04.679Z,0.20
2023-02-18T07:18:32.750Z,0.20
2023-02-18T07:21:00.772Z,0.20
2023-02-18T07:23:30.123Z,0.20
2023-02-18T07:26:05.345Z,0.22
2023-02-18T07:28:33.301Z,0.10
2023-02-18T07:31:01.619Z,0.30
2023-02-18T07:33:29.909Z,0.30
2023-02-18T07:35:59.030Z,0.60
2023-02-18T07:38:29.301Z,0.20
2023-02-18T07:40:58.337Z,0.30
2023-02-18T07:43:26.382Z,0.10
2023-02-18T07:45:55.824Z,0.20
2023-02-18T07:48:23.892Z,0.20
2023-02-18T07:50:51.915Z,0.20
2023-02-18T07:53:19.885Z,0.30
2023-02-18T07:55:52.300Z,0.20
2023-02-18T07:58:21.507Z,0.30
2023-02-18T08:00:50.782Z,0.10
2023-02-18T08:03:19.614Z,0.13
2023-02-18T08:05:49.672Z,0.15
2023-02-18T08:08:20.368Z,0.40
2023-02-18T08:10:52.171Z,1.17
2023-02-18T08:13:20.454Z,0.22
2023-02-18T08:15:48.744Z,0.30
2023-02-18T08:18:18.764Z,0.30
2023-02-18T08:20:47.759Z,0.10
2023-02-18T08:23:16.729Z,0.20
2023-02-18T08:25:48.169Z,0.40
2023-02-18T08:28:19.173Z,0.20
2023-02-18T08:30:47.389Z,0.40
2023-02-18T08:33:16.041Z,0.65
2023-02-18T08:35:44.302Z,0.68
2023-02-18T08:38:12.541Z,0.60
2023-02-18T08:40:40.924Z,0.90
2023-02-18T08:43:09.204Z,1.10
2023-02-18T08:45:39.406Z,1.00
2023-02-18T08:48:17.249Z,1.20
2023-02-18T08:50:48.017Z,1.10
2023-02-18T08:53:16.017Z,1.25
2023-02-18T08:55:44.554Z,1.42
2023-02-18T08:58:13.208Z,1.20
2023-02-18T09:00:44.170Z,1.25
2023-02-18T09:03:14.070Z,1.30
2023-02-18T09:05:42.255Z,1.02
2023-02-18T09:08:10.245Z,1.30
2023-02-18T09:10:39.404Z,0.93
2023-02-18T09:13:07.604Z,1.08
2023-02-18T09:15:35.613Z,1.20
2023-02-18T09:18:05.621Z,1.35
2023-02-18T09:20:33.932Z,1.05
2023-02-18T09:23:03.582Z,1.63
2023-02-18T09:25:31.686Z,1.50
2023-02-18T09:27:59.546Z,1.40
2023-02-18T09:30:27.458Z,1.20
2023-02-18T09:32:55.437Z,1.30
2023-02-18T09:35:24.625Z,1.13
2023-02-18T09:37:52.749Z,1.48
2023-02-18T09:40:27.242Z,1.20
2023-02-18T09:42:57.600Z,1.50
2023-02-18T09:45:26.670Z,1.27
2023-02-18T09:47:55.284Z,1.25
2023-02-18T09:50:27.860Z,1.10
2023-02-18T09:52:56.492Z,1.65
2023-02-18T09:55:28.644Z,1.50
2023-02-18T09:58:00.269Z,1.40
2023-02-18T10:00:33.602Z,1.30
2023-02-18T10:03:06.042Z,2.20
2023-02-18T10:05:37.891Z,1.20
2023-02-18T10:08:08.803Z,2.22
2023-02-18T10:10:41.176Z,1.80
2023-02-18T10:13:14.942Z,1.80
2023-02-18T10:15:44.220Z,1.90
2023-02-18T10:18:23.266Z,1.55
2023-02-18T10:20:54.323Z,2.20
2023-02-18T10:23:23.008Z,1.73
2023-02-18T10:25:52.482Z,2.05
2023-02-18T10:28:24.120Z,1.60
2023-02-18T10:30:57.723Z,1.17
2023-02-18T10:33:35.010Z,1.42
2023-02-18T10:36:18.022Z,1.33
2023-02-18T10:39:03.030Z,1.30
2023-02-18T10:41:43.544Z,0.90
2023-02-18T10:44:19.003Z,1.30
2023-02-18T10:46:58.481Z,1.10
2023-02-18T10:49:41.995Z,1.30
2023-02-18T10:52:17.435Z,1.10
2023-02-18T10:54:55.104Z,1.10
2023-02-18T10:57:25.232Z,2.00
2023-02-18T11:03:51.465Z,1.05
2023-02-18T11:06:25.723Z,1.30
2023-02-18T11:08:57.273Z,1.60
2023-02-18T11:11:30.528Z,1.30
2023-02-18T11:14:00.924Z,1.25
2023-02-18T11:16:40.066Z,1.45
2023-02-18T11:19:33.586Z,1.30
2023-02-18T11:22:09.752Z,0.95
2023-02-18T11:24:41.593Z,1.02
2023-02-18T11:27:13.000Z,2.00
2023-02-18T11:29:42.451Z,1.30
2023-02-18T11:32:12.693Z,1.10
2023-02-18T11:34:45.550Z,1.17
2023-02-18T11:37:19.274Z,1.20
2023-02-18T11:39:51.395Z,1.10
2023-02-18T11:42:22.397Z,1.13
2023-02-18T11:44:53.840Z,1.13
2023-02-18T11:47:27.438Z,1.10
2023-02-18T11:50:12.344Z,1.00
2023-02-18T11:52:42.215Z,0.88
2023-02-18T11:55:17.507Z,0.80
2023-02-18T11:57:51.292Z,0.90
2023-02-18T12:00:25.989Z,1.10
2023-02-18T12:02:57.986Z,0.90
2023-02-18T12:05:27.594Z,1.00
2023-02-18T12:08:00.115Z,0.85
2023-02-18T12:10:33.541Z,0.80
2023-02-18T12:13:06.733Z,0.80
2023-02-18T12:15:45.897Z,0.77
2023-02-18T12:18:26.783Z,1.60
2023-02-18T12:21:12.657Z,0.77
2023-02-18T12:23:51.306Z,0.90
2023-02-18T12:26:27.769Z,0.80
2023-02-18T12:29:19.092Z,0.88
2023-02-18T12:32:13.784Z,1.10
2023-02-18T12:34:54.211Z,0.93
2023-02-18T12:37:42.034Z,0.60
2023-02-18T12:40:40.973Z,0.85
2023-02-18T12:43:20.211Z,1.10
2023-02-18T12:46:17.525Z,0.95
2023-02-18T12:49:02.002Z,1.00
2023-02-18T12:51:39.414Z,0.93
2023-02-18T12:54:34.050Z,0.88
2023-02-18T12:57:28.061Z,0.85
2023-02-18T13:00:16.469Z,0.80
2023-02-18T13:03:12.372Z,0.90
2023-02-18T13:05:46.576Z,1.00
2023-02-18T13:08:31.887Z,0.90
2023-02-18T13:13:41.896Z,1.10
2023-02-18T13:16:14.671Z,0.95
2023-02-18T13:18:46.659Z,0.73
2023-02-18T13:21:17.432Z,0.90
2023-02-18T13:23:53.114Z,0.88
2023-02-18T13:29:01.766Z,1.00
2023-02-18T13:31:42.260Z,0.90
2023-02-18T13:34:18.736Z,1.00
2023-02-18T13:36:55.706Z,1.10
2023-02-18T13:39:25.653Z,0.80
2023-02-18T13:42:13.126Z,0.95
2023-02-18T13:45:03.696Z,0.80
2023-02-18T13:47:40.034Z,1.00
2023-02-18T13:50:17.885Z,1.20
2023-02-18T13:52:46.271Z,0.90
2023-02-18T13:55:21.481Z,0.93
2023-02-18T13:57:50.755Z,1.63
2023-02-18T14:00:23.473Z,1.00
2023-02-18T14:03:00.479Z,1.10
2023-02-18T14:05:41.343Z,1.08
2023-02-18T14:08:14.809Z,1.20
2023-02-18T14:10:42.943Z,1.10
2023-02-18T14:13:25.054Z,0.90
2023-02-18T14:16:01.375Z,1.17
2023-02-18T14:18:54.143Z,0.77
2023-02-18T14:21:38.414Z,0.90
2023-02-18T14:24:14.736Z,0.80
2023-02-18T14:26:48.537Z,0.80
2023-02-18T14:29:29.772Z,0.90
2023-02-18T14:32:04.347Z,0.85
2023-02-18T14:35:06.553Z,0.70
2023-02-18T14:38:03.771Z,1.00
2023-02-18T14:40:57.878Z,1.00
2023-02-18T14:43:41.025Z,0.90
2023-02-18T14:46:27.328Z,0.73
2023-02-18T14:49:12.855Z,1.13
2023-02-18T14:51:48.024Z,0.88
2023-02-18T14:54:19.777Z,1.10
2023-02-18T14:56:57.373Z,1.45
2023-02-18T14:59:28.816Z,1.30
2023-02-18T15:01:57.943Z,0.82
2023-02-18T15:04:27.279Z,0.80
2023-02-18T15:07:04.722Z,0.70
2023-02-18T15:09:33.146Z,0.70
2023-02-18T15:12:04.563Z,0.80
2023-02-18T15:14:35.531Z,0.70
2023-02-18T15:17:05.507Z,0.80
2023-02-18T15:19:40.895Z,0.68
2023-02-18T15:22:17.138Z,0.70
2023-02-18T15:24:45.959Z,0.90
2023-02-18T15:27:17.063Z,0.77
2023-02-18T15:29:45.242Z,0.80
2023-02-18T15:32:19.148Z,1.00
2023-02-18T15:34:51.260Z,0.90
2023-02-18T15:37:21.641Z,1.17
2023-02-18T15:39:49.980Z,1.08
2023-02-18T15:42:27.374Z,1.02
2023-02-18T15:44:59.012Z,0.50
2023-02-18T15:47:27.349Z,0.90
2023-02-18T15:49:59.054Z,0.50
2023-02-18T15:52:32.445Z,0.80
2023-02-18T15:55:06.091Z,0.82
2023-02-18T15:57:35.841Z,1.00
2023-02-18T16:00:13.458Z,0.88
2023-02-18T16:02:54.374Z,1.00
2023-02-18T16:05:26.910Z,0.90
2023-02-18T16:08:00.615Z,0.77
2023-02-18T16:10:46.528Z,0.70
2023-02-18T16:13:16.994Z,0.80
2023-02-18T16:15:47.564Z,0.98
2023-02-18T16:18:32.924Z,0.88
2023-02-18T16:21:05.966Z,0.85
2023-02-18T16:23:41.925Z,0.85
2023-02-18T16:26:23.026Z,1.10
2023-02-18T16:28:53.869Z,0.68
2023-02-18T16:31:22.688Z,0.82
2023-02-18T16:33:51.397Z,0.90
2023-02-18T16:36:20.591Z,0.93
2023-02-18T16:38:50.038Z,1.15
2023-02-18T16:41:18.782Z,0.73
2023-02-18T16:43:46.659Z,0.85
2023-02-18T16:46:18.203Z,1.10
2023-02-18T16:48:50.143Z,1.00
2023-02-18T16:51:21.940Z,0.85
2023-02-18T16:53:51.439Z,0.98
2023-02-18T16:56:21.342Z,1.05
2023-02-18T16:58:50.582Z,1.17
2023-02-18T17:01:27.526Z,1.00
2023-02-18T17:03:56.792Z,1.10
2023-02-18T17:06:25.056Z,1.50
2023-02-18T17:08:54.558Z,1.20
2023-02-18T17:11:25.837Z,1.33
2023-02-18T17:13:55.586Z,1.35
2023-02-18T17:16:24.070Z,1.50
2023-02-18T17:18:52.075Z,2.20
2023-02-18T17:21:22.193Z,1.10
2023-02-18T17:23:50.852Z,1.30
2023-02-18T17:26:24.519Z,1.23
2023-02-18T17:28:53.248Z,1.40
2023-02-18T17:31:26.022Z,1.00
2023-02-18T17:33:54.881Z,2.13
2023-02-18T17:36:23.308Z,1.10
2023-02-18T17:38:51.274Z,1.00
2023-02-18T17:41:20.751Z,1.20
2023-02-18T17:43:48.628Z,0.88
2023-02-18T17:46:18.390Z,1.27
2023-02-18T17:48:47.512Z,1.90
2023-02-18T17:51:24.296Z,1.35
2023-02-18T17:53:52.634Z,1.60
2023-02-18T17:56:22.065Z,1.20
2023-02-18T17:58:50.355Z,1.30
2023-02-18T18:01:18.719Z,1.45
2023-02-18T18:03:46.796Z,1.88
2023-02-18T18:06:17.170Z,1.40
2023-02-18T18:08:45.460Z,2.17
2023-02-18T18:11:15.658Z,1.60
2023-02-18T18:13:46.455Z,1.50
2023-02-18T18:16:16.247Z,2.10
2023-02-18T18:18:44.257Z,1.90
2023-02-18T18:21:19.591Z,2.10
2023-02-18T18:23:47.771Z,1.70
2023-02-18T18:26:15.819Z,1.60
2023-02-18T18:28:45.170Z,1.33
2023-02-18T18:31:18.646Z,1.13
2023-02-18T18:33:48.926Z,1.17
2023-02-18T18:36:18.027Z,1.20
2023-02-18T18:38:46.026Z,1.05
2023-02-18T18:41:16.292Z,1.30
2023-02-18T18:43:45.820Z,1.60
2023-02-18T18:46:14.516Z,1.30
2023-02-18T18:48:42.586Z,1.30
2023-02-18T18:51:15.892Z,1.30
2023-02-18T18:53:44.074Z,1.27
2023-02-18T18:56:13.325Z,3.05
2023-02-18T18:58:41.511Z,1.63
2023-02-18T19:01:15.448Z,1.60
2023-02-18T19:03:43.805Z,2.28
2023-02-18T19:06:12.244Z,1.50
2023-02-18T19:08:42.047Z,1.50
2023-02-18T19:11:12.212Z,1.45
2023-02-18T19:13:40.116Z,1.20
2023-02-18T19:16:14.042Z,1.40
2023-02-18T19:18:43.898Z,3.10
2023-02-18T19:21:12.435Z,1.65
2023-02-18T19:23:40.975Z,1.00
2023-02-18T19:26:09.934Z,1.13
2023-02-18T19:28:38.018Z,1.75
2023-02-18T19:31:10.621Z,1.20
2023-02-18T19:33:39.973Z,1.17
2023-02-18T19:36:11.685Z,1.27
2023-02-18T19:38:40.390Z,1.30
2023-02-18T19:41:10.113Z,1.40
2023-02-18T19:43:38.413Z,1.40
2023-02-18T19:46:10.149Z,1.67
2023-02-18T19:48:38.472Z,2.20
2023-02-18T19:51:07.339Z,1.90
2023-02-18T19:53:37.033Z,2.38
2023-02-18T19:56:07.566Z,3.10
2023-02-18T19:58:35.898Z,1.50
2023-02-18T20:01:04.406Z,1.50
2023-02-18T20:03:32.690Z,1.40
2023-02-18T20:06:00.748Z,1.40
2023-02-18T20:08:28.949Z,1.10
2023-02-18T20:10:59.580Z,1.30
2023-02-18T20:13:28.580Z,1.35
2023-02-18T20:15:56.550Z,1.38
2023-02-18T20:18:24.682Z,1.13
2023-02-18T20:20:52.641Z,1.10
2023-02-18T20:23:20.672Z,1.38
2023-02-18T20:25:48.753Z,1.10
2023-02-18T20:28:18.332Z,1.10
2023-02-18T20:30:46.364Z,1.23
2023-02-18T20:33:14.405Z,1.15
2023-02-18T20:35:42.422Z,1.30
2023-02-18T20:38:10.558Z,1.30
2023-02-18T20:40:38.536Z,1.40
2023-02-18T20:43:06.398Z,1.15
2023-02-18T20:45:35.946Z,1.10
2023-02-18T20:48:04.086Z,0.80
2023-02-18T20:50:32.135Z,0.88
2023-02-18T20:53:00.458Z,0.60
2023-02-18T20:55:28.668Z,0.95
2023-02-18T20:57:57.396Z,1.02
2023-02-18T21:00:25.574Z,1.30
2023-02-18T21:02:54.929Z,0.90
2023-02-18T21:05:23.047Z,1.02
2023-02-18T21:07:51.081Z,0.95
2023-02-18T21:10:21.346Z,1.20
2023-02-18T21:12:49.637Z,0.90
2023-02-18T21:15:18.053Z,1.00
2023-02-18T21:17:46.104Z,1.00
2023-02-18T21:20:15.623Z,0.75
2023-02-18T21:22:43.729Z,0.70
2023-02-18T21:25:13.397Z,0.93
2023-02-18T21:27:41.298Z,0.90
2023-02-18T21:30:10.699Z,0.80
2023-02-18T21:32:38.733Z,0.93
2023-02-18T21:35:07.390Z,0.90
2023-02-18T21:37:37.009Z,1.10
2023-02-18T21:40:05.508Z,1.00
2023-02-18T21:42:34.626Z,1.20
2023-02-18T21:45:02.975Z,1.00
2023-02-18T21:47:31.146Z,1.05
2023-02-18T21:49:59.128Z,1.00
2023-02-18T21:52:27.983Z,1.15
2023-02-18T21:54:57.489Z,1.10
2023-02-18T21:57:26.221Z,0.90
2023-02-18T21:59:54.227Z,0.80
2023-02-18T22:02:24.116Z,0.65
2023-02-18T22:04:52.954Z,1.00
2023-02-18T22:07:23.356Z,0.77
2023-02-18T22:09:53.768Z,0.60
2023-02-18T22:12:24.353Z,0.70
2023-02-18T22:14:52.245Z,0.68
2023-02-18T22:17:21.498Z,0.90
2023-02-18T22:19:49.563Z,0.75
2023-02-18T22:22:18.562Z,0.90
2023-02-18T22:24:46.709Z,0.90
2023-02-18T22:27:14.640Z,0.80
2023-02-18T22:29:43.994Z,0.90
2023-02-18T22:32:12.078Z,0.70
2023-02-18T22:34:40.182Z,0.70
2023-02-18T22:37:08.081Z,1.05
2023-02-18T22:39:36.079Z,0.70
2023-02-18T22:42:04.091Z,0.90
2023-02-18T22:44:32.153Z,0.90
2023-02-18T22:47:02.245Z,0.90
2023-02-18T22:49:30.403Z,1.00
2023-02-18T22:51:58.389Z,0.73
2023-02-18T22:54:26.456Z,0.70
2023-02-18T22:56:54.411Z,0.63
2023-02-18T22:59:22.622Z,1.45
2023-02-18T23:01:52.762Z,0.90
2023-02-18T23:04:22.898Z,0.60
2023-02-18T23:06:51.389Z,0.60
2023-02-18T23:09:22.103Z,0.70
2023-02-18T23:11:54.627Z,0.60
2023-02-18T23:14:22.708Z,0.70
2023-02-18T23:17:07.004Z,0.77
2023-02-18T23:19:37.582Z,0.68
2023-02-18T23:22:06.212Z,0.50
2023-02-18T23:24:35.966Z,0.80
2023-02-18T23:27:04.829Z,0.70
2023-02-18T23:29:33.050Z,0.90
2023-02-18T23:32:01.035Z,0.73
2023-02-18T23:34:29.571Z,0.98
2023-02-18T23:36:59.476Z,0.80
2023-02-18T23:39:32.254Z,0.95
2023-02-18T23:45:02.107Z,1.02
2023-02-18T23:47:30.000Z,0.95
2023-02-18T23:49:57.930Z,1.00
2023-02-18T23:52:27.464Z,1.00
2023-02-18T23:54:55.464Z,0.65
2023-02-18T23:57:23.438Z,0.90
2023-02-18T23:59:51.442Z,1.10
